sensor_id;sensor_type;location;lat;lon;timestamp;P1;durP1;ratioP1;P2;durP2;ratioP2
24407;SDS011;12542;50.924;4.516;2023-05-07T00:01:55;15.65;;;4.55;;
24407;SDS011;12542;50.924;4.516;2023-05-07T00:04:21;9.50;;;4.72;;
24407;SDS011;12542;50.924;4.516;2023-05-07T00:06:47;8.63;;;4.40;;
24407;SDS011;12542;50.924;4.516;2023-05-07T00:09:13;11.50;;;4.80;;
24407;SDS011;12542;50.924;4.516;2023-05-07T00:11:39;12.40;;;4.78;;
24407;SDS011;12542;50.924;4.516;2023-05-07T00:14:05;12.23;;;4.93;;
24407;SDS011;12542;50.924;4.516;2023-05-07T00:16:33;12.93;;;5.45;;
24407;SDS011;12542;50.924;4.516;2023-05-07T00:18:59;8.95;;;4.97;;
24407;SDS011;12542;50.924;4.516;2023-05-07T00:21:27;7.65;;;4.78;;
24407;SDS011;12542;50.924;4.516;2023-05-07T00:23:53;9.00;;;4.68;;
24407;SDS011;12542;50.924;4.516;2023-05-07T00:26:19;10.77;;;4.85;;
24407;SDS011;12542;50.924;4.516;2023-05-07T00:28:45;9.35;;;4.68;;
24407;SDS011;12542;50.924;4.516;2023-05-07T00:31:11;8.88;;;4.85;;
24407;SDS011;12542;50.924;4.516;2023-05-07T00:33:37;8.70;;;4.88;;
24407;SDS011;12542;50.924;4.516;2023-05-07T00:36:03;13.30;;;5.50;;
24407;SDS011;12542;50.924;4.516;2023-05-07T00:38:29;7.03;;;4.60;;
24407;SDS011;12542;50.924;4.516;2023-05-07T00:40:57;11.38;;;5.25;;
24407;SDS011;12542;50.924;4.516;2023-05-07T00:43:23;12.43;;;5.28;;
24407;SDS011;12542;50.924;4.516;2023-05-07T00:45:49;9.43;;;5.00;;
24407;SDS011;12542;50.924;4.516;2023-05-07T00:48:17;9.00;;;5.30;;
24407;SDS011;12542;50.924;4.516;2023-05-07T00:50:43;13.48;;;5.78;;
24407;SDS011;12542;50.924;4.516;2023-05-07T00:53:10;11.65;;;5.20;;
24407;SDS011;12542;50.924;4.516;2023-05-07T00:55:36;10.63;;;5.43;;
24407;SDS011;12542;50.924;4.516;2023-05-07T00:58:03;11.75;;;5.72;;
24407;SDS011;12542;50.924;4.516;2023-05-07T01:00:29;12.45;;;6.75;;
24407;SDS011;12542;50.924;4.516;2023-05-07T01:02:55;8.68;;;5.03;;
24407;SDS011;12542;50.924;4.516;2023-05-07T01:05:21;10.27;;;5.63;;
24407;SDS011;12542;50.924;4.516;2023-05-07T01:07:50;8.52;;;5.13;;
24407;SDS011;12542;50.924;4.516;2023-05-07T01:10:16;9.35;;;5.70;;
24407;SDS011;12542;50.924;4.516;2023-05-07T01:12:43;10.18;;;5.07;;
24407;SDS011;12542;50.924;4.516;2023-05-07T01:15:10;11.32;;;5.55;;
24407;SDS011;12542;50.924;4.516;2023-05-07T01:17:37;9.65;;;5.60;;
24407;SDS011;12542;50.924;4.516;2023-05-07T01:20:05;12.43;;;5.20;;
24407;SDS011;12542;50.924;4.516;2023-05-07T01:22:32;8.57;;;5.40;;
24407;SDS011;12542;50.924;4.516;2023-05-07T01:24:59;10.23;;;5.80;;
24407;SDS011;12542;50.924;4.516;2023-05-07T01:27:26;10.63;;;5.40;;
24407;SDS011;12542;50.924;4.516;2023-05-07T01:29:53;13.30;;;5.85;;
24407;SDS011;12542;50.924;4.516;2023-05-07T01:32:19;11.15;;;5.82;;
24407;SDS011;12542;50.924;4.516;2023-05-07T01:34:50;13.43;;;5.45;;
24407;SDS011;12542;50.924;4.516;2023-05-07T01:37:17;12.73;;;5.82;;
24407;SDS011;12542;50.924;4.516;2023-05-07T01:39:43;11.65;;;6.10;;
24407;SDS011;12542;50.924;4.516;2023-05-07T01:42:09;8.45;;;5.55;;
24407;SDS011;12542;50.924;4.516;2023-05-07T01:44:35;10.00;;;5.72;;
24407;SDS011;12542;50.924;4.516;2023-05-07T01:47:01;13.43;;;6.30;;
24407;SDS011;12542;50.924;4.516;2023-05-07T01:49:27;8.65;;;5.45;;
24407;SDS011;12542;50.924;4.516;2023-05-07T01:51:53;13.15;;;5.88;;
24407;SDS011;12542;50.924;4.516;2023-05-07T01:54:21;9.52;;;5.40;;
24407;SDS011;12542;50.924;4.516;2023-05-07T01:56:52;10.93;;;6.20;;
24407;SDS011;12542;50.924;4.516;2023-05-07T01:59:18;11.68;;;5.75;;
24407;SDS011;12542;50.924;4.516;2023-05-07T02:01:44;13.77;;;6.15;;
24407;SDS011;12542;50.924;4.516;2023-05-07T02:04:10;8.82;;;5.78;;
24407;SDS011;12542;50.924;4.516;2023-05-07T02:06:35;10.48;;;6.20;;
24407;SDS011;12542;50.924;4.516;2023-05-07T02:09:01;13.07;;;6.93;;
24407;SDS011;12542;50.924;4.516;2023-05-07T02:11:27;9.45;;;5.18;;
24407;SDS011;12542;50.924;4.516;2023-05-07T02:13:53;10.73;;;5.57;;
24407;SDS011;12542;50.924;4.516;2023-05-07T02:16:20;15.10;;;6.32;;
24407;SDS011;12542;50.924;4.516;2023-05-07T02:18:46;13.02;;;6.47;;
24407;SDS011;12542;50.924;4.516;2023-05-07T02:21:14;10.63;;;6.03;;
24407;SDS011;12542;50.924;4.516;2023-05-07T02:23:40;8.95;;;5.82;;
24407;SDS011;12542;50.924;4.516;2023-05-07T02:26:06;10.15;;;5.30;;
24407;SDS011;12542;50.924;4.516;2023-05-07T02:28:31;11.32;;;5.35;;
24407;SDS011;12542;50.924;4.516;2023-05-07T02:31:00;11.80;;;5.53;;
24407;SDS011;12542;50.924;4.516;2023-05-07T02:33:29;9.43;;;5.30;;
24407;SDS011;12542;50.924;4.516;2023-05-07T02:35:55;9.60;;;5.15;;
24407;SDS011;12542;50.924;4.516;2023-05-07T02:38:21;8.75;;;5.47;;
24407;SDS011;12542;50.924;4.516;2023-05-07T02:40:47;10.77;;;4.80;;
24407;SDS011;12542;50.924;4.516;2023-05-07T02:43:13;8.93;;;4.55;;
24407;SDS011;12542;50.924;4.516;2023-05-07T02:45:39;10.32;;;5.10;;
24407;SDS011;12542;50.924;4.516;2023-05-07T02:48:05;7.55;;;5.38;;
24407;SDS011;12542;50.924;4.516;2023-05-07T02:50:31;11.52;;;5.80;;
24407;SDS011;12542;50.924;4.516;2023-05-07T02:52:57;13.75;;;6.13;;
24407;SDS011;12542;50.924;4.516;2023-05-07T02:55:23;10.50;;;6.03;;
24407;SDS011;12542;50.924;4.516;2023-05-07T02:57:49;9.88;;;5.65;;
24407;SDS011;12542;50.924;4.516;2023-05-07T03:00:17;9.82;;;5.70;;
24407;SDS011;12542;50.924;4.516;2023-05-07T03:02:44;9.88;;;7.03;;
24407;SDS011;12542;50.924;4.516;2023-05-07T03:05:13;11.40;;;7.00;;
24407;SDS011;12542;50.924;4.516;2023-05-07T03:07:39;10.40;;;7.05;;
24407;SDS011;12542;50.924;4.516;2023-05-07T03:10:09;10.40;;;5.85;;
24407;SDS011;12542;50.924;4.516;2023-05-07T03:12:34;15.13;;;7.10;;
24407;SDS011;12542;50.924;4.516;2023-05-07T03:15:00;10.50;;;7.47;;
24407;SDS011;12542;50.924;4.516;2023-05-07T03:17:26;10.00;;;6.43;;
24407;SDS011;12542;50.924;4.516;2023-05-07T03:19:52;12.43;;;6.75;;
24407;SDS011;12542;50.924;4.516;2023-05-07T03:22:17;9.00;;;6.68;;
24407;SDS011;12542;50.924;4.516;2023-05-07T03:24:43;9.95;;;6.38;;
24407;SDS011;12542;50.924;4.516;2023-05-07T03:27:09;13.35;;;6.47;;
24407;SDS011;12542;50.924;4.516;2023-05-07T03:29:35;9.77;;;6.30;;
24407;SDS011;12542;50.924;4.516;2023-05-07T03:32:01;10.60;;;5.90;;
24407;SDS011;12542;50.924;4.516;2023-05-07T03:34:27;14.02;;;6.97;;
24407;SDS011;12542;50.924;4.516;2023-05-07T03:36:52;10.50;;;6.28;;
24407;SDS011;12542;50.924;4.516;2023-05-07T03:39:18;13.10;;;6.68;;
24407;SDS011;12542;50.924;4.516;2023-05-07T03:41:44;14.82;;;6.78;;
24407;SDS011;12542;50.924;4.516;2023-05-07T03:44:09;10.15;;;6.18;;
24407;SDS011;12542;50.924;4.516;2023-05-07T03:46:40;11.13;;;6.60;;
24407;SDS011;12542;50.924;4.516;2023-05-07T03:49:05;20.83;;;6.40;;
24407;SDS011;12542;50.924;4.516;2023-05-07T03:51:31;10.88;;;6.45;;
24407;SDS011;12542;50.924;4.516;2023-05-07T03:53:57;10.85;;;6.60;;
24407;SDS011;12542;50.924;4.516;2023-05-07T03:56:23;13.43;;;6.97;;
24407;SDS011;12542;50.924;4.516;2023-05-07T03:58:51;12.68;;;6.38;;
24407;SDS011;12542;50.924;4.516;2023-05-07T04:01:17;10.52;;;6.43;;
24407;SDS011;12542;50.924;4.516;2023-05-07T04:03:43;9.45;;;6.25;;
24407;SDS011;12542;50.924;4.516;2023-05-07T04:06:08;13.20;;;6.75;;
24407;SDS011;12542;50.924;4.516;2023-05-07T04:08:34;16.25;;;7.47;;
24407;SDS011;12542;50.924;4.516;2023-05-07T04:11:00;8.45;;;6.50;;
24407;SDS011;12542;50.924;4.516;2023-05-07T04:13:26;13.57;;;6.85;;
24407;SDS011;12542;50.924;4.516;2023-05-07T04:15:52;12.65;;;6.57;;
24407;SDS011;12542;50.924;4.516;2023-05-07T04:18:18;9.30;;;6.03;;
24407;SDS011;12542;50.924;4.516;2023-05-07T04:20:45;11.23;;;7.75;;
24407;SDS011;12542;50.924;4.516;2023-05-07T04:23:10;10.07;;;7.72;;
24407;SDS011;12542;50.924;4.516;2023-05-07T04:25:36;13.35;;;7.57;;
24407;SDS011;12542;50.924;4.516;2023-05-07T04:28:02;11.77;;;7.70;;
24407;SDS011;12542;50.924;4.516;2023-05-07T04:30:27;12.52;;;7.65;;
24407;SDS011;12542;50.924;4.516;2023-05-07T04:32:53;13.25;;;8.05;;
24407;SDS011;12542;50.924;4.516;2023-05-07T04:35:19;13.93;;;7.75;;
24407;SDS011;12542;50.924;4.516;2023-05-07T04:37:44;14.27;;;7.45;;
24407;SDS011;12542;50.924;4.516;2023-05-07T04:40:10;15.13;;;8.15;;
24407;SDS011;12542;50.924;4.516;2023-05-07T04:42:37;12.32;;;7.30;;
24407;SDS011;12542;50.924;4.516;2023-05-07T04:45:03;13.88;;;8.00;;
24407;SDS011;12542;50.924;4.516;2023-05-07T04:47:30;10.80;;;7.80;;
24407;SDS011;12542;50.924;4.516;2023-05-07T04:49:55;12.98;;;7.85;;
24407;SDS011;12542;50.924;4.516;2023-05-07T04:52:22;12.40;;;7.18;;
24407;SDS011;12542;50.924;4.516;2023-05-07T04:54:48;13.48;;;8.45;;
24407;SDS011;12542;50.924;4.516;2023-05-07T04:57:13;14.50;;;8.02;;
24407;SDS011;12542;50.924;4.516;2023-05-07T04:59:39;14.52;;;7.85;;
24407;SDS011;12542;50.924;4.516;2023-05-07T05:02:05;18.38;;;8.85;;
24407;SDS011;12542;50.924;4.516;2023-05-07T05:04:30;12.38;;;7.90;;
24407;SDS011;12542;50.924;4.516;2023-05-07T05:06:58;14.02;;;7.32;;
24407;SDS011;12542;50.924;4.516;2023-05-07T05:09:28;16.38;;;9.20;;
24407;SDS011;12542;50.924;4.516;2023-05-07T05:11:56;13.40;;;8.93;;
24407;SDS011;12542;50.924;4.516;2023-05-07T05:14:22;13.25;;;8.13;;
24407;SDS011;12542;50.924;4.516;2023-05-07T05:16:47;14.30;;;8.40;;
24407;SDS011;12542;50.924;4.516;2023-05-07T05:19:13;14.65;;;8.57;;
24407;SDS011;12542;50.924;4.516;2023-05-07T05:21:39;12.07;;;8.05;;
24407;SDS011;12542;50.924;4.516;2023-05-07T05:24:05;15.65;;;8.45;;
24407;SDS011;12542;50.924;4.516;2023-05-07T05:26:30;13.45;;;8.90;;
24407;SDS011;12542;50.924;4.516;2023-05-07T05:28:56;12.43;;;7.85;;
24407;SDS011;12542;50.924;4.516;2023-05-07T05:31:22;13.30;;;7.82;;
24407;SDS011;12542;50.924;4.516;2023-05-07T05:33:48;13.13;;;9.05;;
24407;SDS011;12542;50.924;4.516;2023-05-07T05:36:13;11.80;;;7.95;;
24407;SDS011;12542;50.924;4.516;2023-05-07T05:38:39;14.35;;;8.27;;
24407;SDS011;12542;50.924;4.516;2023-05-07T05:41:05;11.32;;;7.97;;
24407;SDS011;12542;50.924;4.516;2023-05-07T05:43:31;13.82;;;8.88;;
24407;SDS011;12542;50.924;4.516;2023-05-07T05:45:57;14.77;;;9.00;;
24407;SDS011;12542;50.924;4.516;2023-05-07T05:48:23;12.63;;;8.35;;
24407;SDS011;12542;50.924;4.516;2023-05-07T05:50:48;14.57;;;8.52;;
24407;SDS011;12542;50.924;4.516;2023-05-07T05:53:14;11.45;;;7.93;;
24407;SDS011;12542;50.924;4.516;2023-05-07T05:55:41;12.30;;;8.48;;
24407;SDS011;12542;50.924;4.516;2023-05-07T05:58:06;15.90;;;9.82;;
24407;SDS011;12542;50.924;4.516;2023-05-07T06:00:32;12.98;;;9.52;;
24407;SDS011;12542;50.924;4.516;2023-05-07T06:02:58;16.33;;;9.00;;
24407;SDS011;12542;50.924;4.516;2023-05-07T06:05:24;15.40;;;9.57;;
24407;SDS011;12542;50.924;4.516;2023-05-07T06:07:50;14.57;;;10.18;;
24407;SDS011;12542;50.924;4.516;2023-05-07T06:10:15;15.73;;;10.40;;
24407;SDS011;12542;50.924;4.516;2023-05-07T06:12:41;17.90;;;10.73;;
24407;SDS011;12542;50.924;4.516;2023-05-07T06:15:09;19.73;;;10.13;;
24407;SDS011;12542;50.924;4.516;2023-05-07T06:17:35;17.35;;;9.80;;
24407;SDS011;12542;50.924;4.516;2023-05-07T06:20:01;13.27;;;9.55;;
24407;SDS011;12542;50.924;4.516;2023-05-07T06:22:27;12.65;;;8.93;;
24407;SDS011;12542;50.924;4.516;2023-05-07T06:24:52;15.73;;;8.20;;
24407;SDS011;12542;50.924;4.516;2023-05-07T06:27:18;14.48;;;8.18;;
24407;SDS011;12542;50.924;4.516;2023-05-07T06:29:44;11.30;;;7.10;;
24407;SDS011;12542;50.924;4.516;2023-05-07T06:32:10;13.13;;;7.00;;
24407;SDS011;12542;50.924;4.516;2023-05-07T06:34:37;10.63;;;6.38;;
24407;SDS011;12542;50.924;4.516;2023-05-07T06:37:05;11.63;;;6.43;;
24407;SDS011;12542;50.924;4.516;2023-05-07T06:39:31;12.18;;;6.82;;
24407;SDS011;12542;50.924;4.516;2023-05-07T06:41:57;14.27;;;6.07;;
24407;SDS011;12542;50.924;4.516;2023-05-07T06:44:23;12.45;;;6.95;;
24407;SDS011;12542;50.924;4.516;2023-05-07T06:46:49;11.07;;;5.68;;
24407;SDS011;12542;50.924;4.516;2023-05-07T06:49:14;12.40;;;5.75;;
24407;SDS011;12542;50.924;4.516;2023-05-07T06:51:40;10.00;;;5.85;;
24407;SDS011;12542;50.924;4.516;2023-05-07T06:54:06;11.90;;;6.20;;
24407;SDS011;12542;50.924;4.516;2023-05-07T06:56:34;14.00;;;6.90;;
24407;SDS011;12542;50.924;4.516;2023-05-07T06:59:00;11.32;;;6.47;;
24407;SDS011;12542;50.924;4.516;2023-05-07T07:01:27;16.67;;;7.10;;
24407;SDS011;12542;50.924;4.516;2023-05-07T07:03:52;14.52;;;5.80;;
24407;SDS011;12542;50.924;4.516;2023-05-07T07:06:18;10.52;;;6.10;;
24407;SDS011;12542;50.924;4.516;2023-05-07T07:08:44;17.42;;;5.97;;
24407;SDS011;12542;50.924;4.516;2023-05-07T07:11:10;11.43;;;5.30;;
24407;SDS011;12542;50.924;4.516;2023-05-07T07:13:36;11.05;;;4.93;;
24407;SDS011;12542;50.924;4.516;2023-05-07T07:16:02;14.98;;;5.28;;
24407;SDS011;12542;50.924;4.516;2023-05-07T07:18:28;10.25;;;3.83;;
24407;SDS011;12542;50.924;4.516;2023-05-07T07:20:54;9.88;;;4.30;;
24407;SDS011;12542;50.924;4.516;2023-05-07T07:23:20;11.13;;;4.20;;
24407;SDS011;12542;50.924;4.516;2023-05-07T07:25:45;11.75;;;4.18;;
24407;SDS011;12542;50.924;4.516;2023-05-07T07:28:11;10.20;;;3.38;;
24407;SDS011;12542;50.924;4.516;2023-05-07T07:30:37;8.93;;;3.58;;
24407;SDS011;12542;50.924;4.516;2023-05-07T07:33:03;12.13;;;3.67;;
24407;SDS011;12542;50.924;4.516;2023-05-07T07:35:30;9.63;;;4.03;;
24407;SDS011;12542;50.924;4.516;2023-05-07T07:37:58;7.95;;;3.60;;
24407;SDS011;12542;50.924;4.516;2023-05-07T07:40:24;11.23;;;3.75;;
24407;SDS011;12542;50.924;4.516;2023-05-07T07:42:51;9.82;;;3.40;;
24407;SDS011;12542;50.924;4.516;2023-05-07T07:45:19;8.50;;;3.15;;
24407;SDS011;12542;50.924;4.516;2023-05-07T07:47:45;15.77;;;4.05;;
24407;SDS011;12542;50.924;4.516;2023-05-07T07:50:11;8.18;;;3.20;;
24407;SDS011;12542;50.924;4.516;2023-05-07T07:52:37;8.15;;;3.63;;
24407;SDS011;12542;50.924;4.516;2023-05-07T07:55:02;9.85;;;3.45;;
24407;SDS011;12542;50.924;4.516;2023-05-07T07:57:29;10.63;;;3.50;;
24407;SDS011;12542;50.924;4.516;2023-05-07T07:59:55;10.70;;;3.40;;
24407;SDS011;12542;50.924;4.516;2023-05-07T08:02:21;9.63;;;3.58;;
24407;SDS011;12542;50.924;4.516;2023-05-07T08:04:47;10.80;;;3.53;;
24407;SDS011;12542;50.924;4.516;2023-05-07T08:07:13;9.93;;;3.78;;
24407;SDS011;12542;50.924;4.516;2023-05-07T08:09:39;10.32;;;3.63;;
24407;SDS011;12542;50.924;4.516;2023-05-07T08:12:06;10.95;;;3.92;;
24407;SDS011;12542;50.924;4.516;2023-05-07T08:14:32;11.02;;;3.92;;
24407;SDS011;12542;50.924;4.516;2023-05-07T08:16:58;10.93;;;3.63;;
24407;SDS011;12542;50.924;4.516;2023-05-07T08:19:24;8.00;;;3.50;;
24407;SDS011;12542;50.924;4.516;2023-05-07T08:21:52;10.55;;;3.83;;
24407;SDS011;12542;50.924;4.516;2023-05-07T08:24:17;8.40;;;3.70;;
24407;SDS011;12542;50.924;4.516;2023-05-07T08:26:43;8.02;;;3.97;;
24407;SDS011;12542;50.924;4.516;2023-05-07T08:29:15;12.50;;;4.43;;
24407;SDS011;12542;50.924;4.516;2023-05-07T08:31:43;15.93;;;4.75;;
24407;SDS011;12542;50.924;4.516;2023-05-07T08:34:09;11.45;;;4.18;;
24407;SDS011;12542;50.924;4.516;2023-05-07T08:36:34;10.45;;;4.13;;
24407;SDS011;12542;50.924;4.516;2023-05-07T08:39:00;9.77;;;4.50;;
24407;SDS011;12542;50.924;4.516;2023-05-07T08:41:26;13.75;;;4.78;;
24407;SDS011;12542;50.924;4.516;2023-05-07T08:43:51;13.63;;;4.15;;
24407;SDS011;12542;50.924;4.516;2023-05-07T08:46:22;11.05;;;3.88;;
24407;SDS011;12542;50.924;4.516;2023-05-07T08:48:48;6.55;;;3.80;;
24407;SDS011;12542;50.924;4.516;2023-05-07T08:51:16;7.78;;;3.55;;
24407;SDS011;12542;50.924;4.516;2023-05-07T08:53:43;8.95;;;3.80;;
24407;SDS011;12542;50.924;4.516;2023-05-07T08:56:10;12.07;;;4.18;;
24407;SDS011;12542;50.924;4.516;2023-05-07T08:58:36;8.55;;;3.38;;
24407;SDS011;12542;50.924;4.516;2023-05-07T09:01:03;10.05;;;3.55;;
24407;SDS011;12542;50.924;4.516;2023-05-07T09:03:35;12.95;;;3.75;;
24407;SDS011;12542;50.924;4.516;2023-05-07T09:06:02;11.55;;;4.22;;
24407;SDS011;12542;50.924;4.516;2023-05-07T09:08:28;7.88;;;3.17;;
24407;SDS011;12542;50.924;4.516;2023-05-07T09:10:54;8.00;;;2.90;;
24407;SDS011;12542;50.924;4.516;2023-05-07T09:13:20;9.20;;;3.45;;
24407;SDS011;12542;50.924;4.516;2023-05-07T09:15:46;5.85;;;2.50;;
24407;SDS011;12542;50.924;4.516;2023-05-07T09:18:12;9.02;;;3.28;;
24407;SDS011;12542;50.924;4.516;2023-05-07T09:20:38;7.10;;;2.83;;
24407;SDS011;12542;50.924;4.516;2023-05-07T09:23:05;9.75;;;2.85;;
24407;SDS011;12542;50.924;4.516;2023-05-07T09:25:34;6.85;;;2.58;;
24407;SDS011;12542;50.924;4.516;2023-05-07T09:28:01;7.32;;;3.00;;
24407;SDS011;12542;50.924;4.516;2023-05-07T09:30:28;5.82;;;2.47;;
24407;SDS011;12542;50.924;4.516;2023-05-07T09:32:57;6.82;;;2.28;;
24407;SDS011;12542;50.924;4.516;2023-05-07T09:35:24;7.82;;;2.85;;
24407;SDS011;12542;50.924;4.516;2023-05-07T09:37:52;7.22;;;2.63;;
24407;SDS011;12542;50.924;4.516;2023-05-07T09:40:23;9.20;;;2.55;;
24407;SDS011;12542;50.924;4.516;2023-05-07T09:42:50;6.47;;;2.60;;
24407;SDS011;12542;50.924;4.516;2023-05-07T09:45:21;6.65;;;2.47;;
24407;SDS011;12542;50.924;4.516;2023-05-07T09:47:49;8.52;;;2.70;;
24407;SDS011;12542;50.924;4.516;2023-05-07T09:50:20;6.20;;;2.20;;
24407;SDS011;12542;50.924;4.516;2023-05-07T09:52:52;6.95;;;2.35;;
24407;SDS011;12542;50.924;4.516;2023-05-07T09:55:20;6.80;;;2.45;;
24407;SDS011;12542;50.924;4.516;2023-05-07T09:57:48;5.82;;;2.50;;
24407;SDS011;12542;50.924;4.516;2023-05-07T10:00:20;6.75;;;2.42;;
24407;SDS011;12542;50.924;4.516;2023-05-07T10:02:47;6.90;;;2.58;;
24407;SDS011;12542;50.924;4.516;2023-05-07T10:05:18;8.60;;;2.28;;
24407;SDS011;12542;50.924;4.516;2023-05-07T10:07:47;5.75;;;2.40;;
24407;SDS011;12542;50.924;4.516;2023-05-07T10:10:14;6.57;;;2.50;;
24407;SDS011;12542;50.924;4.516;2023-05-07T10:12:41;10.40;;;3.67;;
24407;SDS011;12542;50.924;4.516;2023-05-07T10:15:10;5.57;;;2.42;;
24407;SDS011;12542;50.924;4.516;2023-05-07T10:17:39;7.65;;;2.80;;
24407;SDS011;12542;50.924;4.516;2023-05-07T10:20:07;9.43;;;2.70;;
24407;SDS011;12542;50.924;4.516;2023-05-07T10:22:47;8.73;;;2.50;;
24407;SDS011;12542;50.924;4.516;2023-05-07T10:25:18;8.73;;;3.15;;
24407;SDS011;12542;50.924;4.516;2023-05-07T10:27:48;6.65;;;3.10;;
24407;SDS011;12542;50.924;4.516;2023-05-07T10:33:01;6.10;;;2.92;;
24407;SDS011;12542;50.924;4.516;2023-05-07T10:35:31;6.95;;;2.83;;
24407;SDS011;12542;50.924;4.516;2023-05-07T10:38:02;10.07;;;3.22;;
24407;SDS011;12542;50.924;4.516;2023-05-07T10:40:30;8.85;;;3.47;;
24407;SDS011;12542;50.924;4.516;2023-05-07T10:43:00;7.60;;;3.22;;
24407;SDS011;12542;50.924;4.516;2023-05-07T10:45:27;7.97;;;3.30;;
24407;SDS011;12542;50.924;4.516;2023-05-07T10:48:12;6.70;;;2.88;;
24407;SDS011;12542;50.924;4.516;2023-05-07T10:50:42;8.20;;;2.72;;
24407;SDS011;12542;50.924;4.516;2023-05-07T10:58:22;7.50;;;2.45;;
24407;SDS011;12542;50.924;4.516;2023-05-07T11:00:59;7.35;;;2.75;;
24407;SDS011;12542;50.924;4.516;2023-05-07T11:03:26;6.35;;;2.60;;
24407;SDS011;12542;50.924;4.516;2023-05-07T11:06:11;10.20;;;3.17;;
24407;SDS011;12542;50.924;4.516;2023-05-07T11:08:57;11.25;;;3.60;;
24407;SDS011;12542;50.924;4.516;2023-05-07T11:17:06;5.53;;;2.35;;
24407;SDS011;12542;50.924;4.516;2023-05-07T11:19:49;11.95;;;2.42;;
24407;SDS011;12542;50.924;4.516;2023-05-07T11:24:59;5.65;;;1.90;;
24407;SDS011;12542;50.924;4.516;2023-05-07T11:27:25;7.32;;;2.22;;
24407;SDS011;12542;50.924;4.516;2023-05-07T11:29:52;6.53;;;1.90;;
24407;SDS011;12542;50.924;4.516;2023-05-07T11:32:31;5.65;;;1.88;;
24407;SDS011;12542;50.924;4.516;2023-05-07T11:34:58;4.53;;;1.80;;
24407;SDS011;12542;50.924;4.516;2023-05-07T11:37:25;5.25;;;2.15;;
24407;SDS011;12542;50.924;4.516;2023-05-07T11:40:04;6.28;;;1.90;;
24407;SDS011;12542;50.924;4.516;2023-05-07T11:42:33;5.22;;;1.50;;
24407;SDS011;12542;50.924;4.516;2023-05-07T11:45:00;7.60;;;1.83;;
24407;SDS011;12542;50.924;4.516;2023-05-07T11:47:26;6.82;;;2.28;;
24407;SDS011;12542;50.924;4.516;2023-05-07T11:49:55;7.15;;;2.20;;
24407;SDS011;12542;50.924;4.516;2023-05-07T11:52:22;6.25;;;2.70;;
24407;SDS011;12542;50.924;4.516;2023-05-07T11:54:52;6.03;;;2.55;;
24407;SDS011;12542;50.924;4.516;2023-05-07T11:57:19;7.13;;;2.63;;
24407;SDS011;12542;50.924;4.516;2023-05-07T11:59:46;6.72;;;2.53;;
24407;SDS011;12542;50.924;4.516;2023-05-07T12:02:13;3.58;;;1.63;;
24407;SDS011;12542;50.924;4.516;2023-05-07T12:04:40;3.63;;;1.67;;
24407;SDS011;12542;50.924;4.516;2023-05-07T12:07:15;7.03;;;2.40;;
24407;SDS011;12542;50.924;4.516;2023-05-07T12:09:42;9.10;;;1.98;;
24407;SDS011;12542;50.924;4.516;2023-05-07T12:12:08;6.18;;;1.83;;
24407;SDS011;12542;50.924;4.516;2023-05-07T12:14:41;7.28;;;2.17;;
24407;SDS011;12542;50.924;4.516;2023-05-07T12:17:08;8.05;;;2.13;;
24407;SDS011;12542;50.924;4.516;2023-05-07T12:19:35;5.28;;;1.85;;
24407;SDS011;12542;50.924;4.516;2023-05-07T12:22:05;3.78;;;1.48;;
24407;SDS011;12542;50.924;4.516;2023-05-07T12:24:45;6.05;;;1.70;;
24407;SDS011;12542;50.924;4.516;2023-05-07T12:27:12;4.43;;;1.90;;
24407;SDS011;12542;50.924;4.516;2023-05-07T12:29:39;6.03;;;2.13;;
24407;SDS011;12542;50.924;4.516;2023-05-07T12:32:12;3.80;;;1.52;;
24407;SDS011;12542;50.924;4.516;2023-05-07T12:34:43;3.80;;;1.13;;
24407;SDS011;12542;50.924;4.516;2023-05-07T12:37:09;2.63;;;1.20;;
24407;SDS011;12542;50.924;4.516;2023-05-07T12:39:35;3.85;;;1.10;;
24407;SDS011;12542;50.924;4.516;2023-05-07T12:42:01;3.75;;;1.52;;
24407;SDS011;12542;50.924;4.516;2023-05-07T12:44:31;5.95;;;1.95;;
24407;SDS011;12542;50.924;4.516;2023-05-07T12:46:58;7.85;;;1.70;;
24407;SDS011;12542;50.924;4.516;2023-05-07T12:49:26;3.63;;;1.40;;
24407;SDS011;12542;50.924;4.516;2023-05-07T12:51:53;2.67;;;1.13;;
24407;SDS011;12542;50.924;4.516;2023-05-07T12:54:31;4.93;;;1.85;;
24407;SDS011;12542;50.924;4.516;2023-05-07T12:57:04;4.30;;;1.50;;
24407;SDS011;12542;50.924;4.516;2023-05-07T12:59:41;6.38;;;1.85;;
24407;SDS011;12542;50.924;4.516;2023-05-07T13:02:07;3.25;;;1.30;;
24407;SDS011;12542;50.924;4.516;2023-05-07T13:04:36;4.90;;;1.77;;
24407;SDS011;12542;50.924;4.516;2023-05-07T13:07:02;6.43;;;1.70;;
24407;SDS011;12542;50.924;4.516;2023-05-07T13:09:28;4.35;;;2.42;;
24407;SDS011;12542;50.924;4.516;2023-05-07T13:11:54;7.82;;;2.15;;
24407;SDS011;12542;50.924;4.516;2023-05-07T13:14:20;8.77;;;2.00;;
24407;SDS011;12542;50.924;4.516;2023-05-07T13:16:48;6.80;;;2.20;;
24407;SDS011;12542;50.924;4.516;2023-05-07T13:19:14;4.43;;;1.65;;
24407;SDS011;12542;50.924;4.516;2023-05-07T13:21:40;6.82;;;2.10;;
24407;SDS011;12542;50.924;4.516;2023-05-07T13:24:06;4.95;;;2.08;;
24407;SDS011;12542;50.924;4.516;2023-05-07T13:26:34;6.68;;;2.38;;
24407;SDS011;12542;50.924;4.516;2023-05-07T13:29:00;6.60;;;2.10;;
24407;SDS011;12542;50.924;4.516;2023-05-07T13:31:26;5.75;;;2.33;;
24407;SDS011;12542;50.924;4.516;2023-05-07T13:33:51;7.13;;;2.72;;
24407;SDS011;12542;50.924;4.516;2023-05-07T13:36:20;5.00;;;2.50;;
24407;SDS011;12542;50.924;4.516;2023-05-07T13:38:45;6.53;;;2.00;;
24407;SDS011;12542;50.924;4.516;2023-05-07T13:41:11;4.65;;;2.33;;
24407;SDS011;12542;50.924;4.516;2023-05-07T13:43:38;6.10;;;2.17;;
24407;SDS011;12542;50.924;4.516;2023-05-07T13:46:03;3.47;;;1.80;;
24407;SDS011;12542;50.924;4.516;2023-05-07T13:48:29;4.68;;;1.95;;
24407;SDS011;12542;50.924;4.516;2023-05-07T13:50:55;5.00;;;1.67;;
24407;SDS011;12542;50.924;4.516;2023-05-07T13:53:20;4.43;;;1.65;;
24407;SDS011;12542;50.924;4.516;2023-05-07T13:55:46;3.92;;;1.70;;
24407;SDS011;12542;50.924;4.516;2023-05-07T13:58:12;4.90;;;1.95;;
24407;SDS011;12542;50.924;4.516;2023-05-07T14:00:38;4.03;;;1.83;;
24407;SDS011;12542;50.924;4.516;2023-05-07T14:03:04;6.13;;;2.10;;
24407;SDS011;12542;50.924;4.516;2023-05-07T14:05:30;4.53;;;1.95;;
24407;SDS011;12542;50.924;4.516;2023-05-07T14:07:58;3.85;;;1.95;;
24407;SDS011;12542;50.924;4.516;2023-05-07T14:10:24;3.90;;;2.00;;
24407;SDS011;12542;50.924;4.516;2023-05-07T14:12:53;4.78;;;2.60;;
24407;SDS011;12542;50.924;4.516;2023-05-07T14:15:19;3.75;;;1.88;;
24407;SDS011;12542;50.924;4.516;2023-05-07T14:17:45;4.47;;;2.05;;
24407;SDS011;12542;50.924;4.516;2023-05-07T14:20:12;6.28;;;2.45;;
24407;SDS011;12542;50.924;4.516;2023-05-07T14:22:40;4.53;;;2.00;;
24407;SDS011;12542;50.924;4.516;2023-05-07T14:25:05;4.07;;;2.58;;
24407;SDS011;12542;50.924;4.516;2023-05-07T14:27:32;5.30;;;2.65;;
24407;SDS011;12542;50.924;4.516;2023-05-07T14:29:58;4.25;;;2.80;;
24407;SDS011;12542;50.924;4.516;2023-05-07T14:32:23;4.90;;;2.75;;
24407;SDS011;12542;50.924;4.516;2023-05-07T14:34:49;5.35;;;2.75;;
24407;SDS011;12542;50.924;4.516;2023-05-07T14:37:15;4.28;;;2.60;;
24407;SDS011;12542;50.924;4.516;2023-05-07T14:39:41;5.88;;;2.67;;
24407;SDS011;12542;50.924;4.516;2023-05-07T14:42:06;5.32;;;2.53;;
24407;SDS011;12542;50.924;4.516;2023-05-07T14:44:38;3.47;;;2.42;;
24407;SDS011;12542;50.924;4.516;2023-05-07T14:47:06;6.93;;;2.78;;
24407;SDS011;12542;50.924;4.516;2023-05-07T14:49:33;4.18;;;2.40;;
24407;SDS011;12542;50.924;4.516;2023-05-07T14:51:59;4.70;;;2.70;;
24407;SDS011;12542;50.924;4.516;2023-05-07T14:54:25;4.70;;;2.90;;
24407;SDS011;12542;50.924;4.516;2023-05-07T14:56:51;5.95;;;2.85;;